createdAt,value
2022-08-24T00:00:54.021Z,82.03
2022-08-24T00:01:54.200Z,82.23
2022-08-24T00:02:54.082Z,82.23
2022-08-24T00:03:55.308Z,82.03
2022-08-24T00:04:53.974Z,82.23
2022-08-24T00:05:53.982Z,82.43
2022-08-24T00:06:53.956Z,82.43
2022-08-24T00:07:53.981Z,82.32
2022-08-24T00:08:53.945Z,82.32
2022-08-24T00:09:53.939Z,82.43
2022-08-24T00:10:53.910Z,82.53
2022-08-24T00:11:53.913Z,82.43
2022-08-24T00:12:53.900Z,82.43
2022-08-24T00:13:53.883Z,82.53
2022-08-24T00:14:53.868Z,82.53
2022-08-24T00:15:53.875Z,82.63
2022-08-24T00:16:53.880Z,82.76
2022-08-24T00:17:53.862Z,82.76
2022-08-24T00:18:53.831Z,82.87
2022-08-24T00:19:53.820Z,82.76
2022-08-24T00:20:53.804Z,82.76
2022-08-24T00:21:53.803Z,82.97
2022-08-24T00:22:53.810Z,82.97
2022-08-24T00:23:53.776Z,83.27
2022-08-24T00:24:53.771Z,82.97
2022-08-24T00:25:53.759Z,83.17
2022-08-24T00:26:53.755Z,83.27
2022-08-24T00:27:53.752Z,83.27
2022-08-24T00:28:53.722Z,83.57
2022-08-24T00:29:53.728Z,83.77
2022-08-24T00:30:53.710Z,83.67
2022-08-24T00:31:53.773Z,83.77
2022-08-24T00:32:53.698Z,83.77
2022-08-24T00:33:53.677Z,83.57
2022-08-24T00:34:59.238Z,83.77
2022-08-24T00:35:53.656Z,83.77
2022-08-24T00:36:53.643Z,83.67
2022-08-24T00:37:53.664Z,83.77
2022-08-24T00:38:53.615Z,83.97
2022-08-24T00:39:53.706Z,83.77
2022-08-24T00:40:53.603Z,83.97
2022-08-24T00:41:53.596Z,84.07
2022-08-24T00:42:53.596Z,83.87
2022-08-24T00:43:53.570Z,83.87
2022-08-24T00:44:53.555Z,83.97
2022-08-24T00:45:53.619Z,84.17
2022-08-24T00:46:53.534Z,84.07
2022-08-24T00:47:53.539Z,84.11
2022-08-24T00:48:53.517Z,84.21
2022-08-24T00:49:53.505Z,84.31
2022-08-24T00:50:53.495Z,84.41
2022-08-24T00:51:53.487Z,84.21
2022-08-24T00:52:53.643Z,84.71
2022-08-24T00:53:53.465Z,84.71
2022-08-24T00:54:53.451Z,84.51
2022-08-24T00:55:53.443Z,84.81
2022-08-24T00:56:53.425Z,84.81
2022-08-24T00:57:53.475Z,85.02
2022-08-24T00:58:57.051Z,85.11
2022-08-24T00:59:53.401Z,85.11
2022-08-24T01:00:53.447Z,85.31
2022-08-24T01:01:53.441Z,85.41
2022-08-24T01:02:53.376Z,85.22
2022-08-24T01:03:56.840Z,85.46
2022-08-24T01:04:53.341Z,85.36
2022-08-24T01:05:53.339Z,85.56
2022-08-24T01:06:53.334Z,85.66
2022-08-24T01:07:53.325Z,85.66
2022-08-24T01:08:56.780Z,85.56
2022-08-24T01:09:53.303Z,85.75
2022-08-24T01:10:53.283Z,85.75
2022-08-24T01:11:53.292Z,85.86
2022-08-24T01:13:00.602Z,85.75
2022-08-24T01:13:53.291Z,85.86
2022-08-24T01:14:53.243Z,85.75
2022-08-24T01:15:53.266Z,85.66
2022-08-24T01:16:53.226Z,85.52
2022-08-24T01:17:53.219Z,85.41
2022-08-24T01:18:53.213Z,85.41
2022-08-24T01:19:53.207Z,85.52
2022-08-24T01:20:53.176Z,85.72
2022-08-24T01:21:53.176Z,85.41
2022-08-24T01:22:53.152Z,85.52
2022-08-24T01:23:53.171Z,85.22
2022-08-24T01:24:53.138Z,85.41
2022-08-24T01:25:53.143Z,85.52
2022-08-24T01:26:53.113Z,85.41
2022-08-24T01:27:53.107Z,85.52
2022-08-24T01:28:53.129Z,85.72
2022-08-24T01:29:53.086Z,85.31
2022-08-24T01:30:53.081Z,85.61
2022-08-24T01:31:53.170Z,85.31
2022-08-24T01:32:53.061Z,85.41
2022-08-24T01:33:53.067Z,85.41
2022-08-24T01:34:53.038Z,85.22
2022-08-24T01:35:53.027Z,85.41
2022-08-24T01:36:53.022Z,85.41
2022-08-24T01:37:53.012Z,85.52
2022-08-24T01:38:53.007Z,85.41
2022-08-24T01:39:53.034Z,85.52
2022-08-24T01:40:52.975Z,85.52
2022-08-24T01:41:52.966Z,85.41
2022-08-24T01:42:52.973Z,85.72
2022-08-24T01:43:52.945Z,85.82
2022-08-24T01:44:52.929Z,85.72
2022-08-24T01:45:52.937Z,85.82
2022-08-24T01:46:53.038Z,85.82
2022-08-24T01:47:52.935Z,86.22
2022-08-24T01:48:52.904Z,86.42
2022-08-24T01:49:52.901Z,86.72
2022-08-24T01:50:52.945Z,86.82
2022-08-24T01:51:52.857Z,86.72
2022-08-24T01:53:04.799Z,86.72
2022-08-24T01:53:52.836Z,86.82
2022-08-24T01:54:52.841Z,87.02
2022-08-24T01:55:52.812Z,87.02
2022-08-24T01:56:52.811Z,87.22
2022-08-24T01:57:52.803Z,87.32
2022-08-24T01:58:52.779Z,87.66
2022-08-24T01:59:52.770Z,87.26
2022-08-24T02:00:52.753Z,87.57
2022-08-24T02:01:52.835Z,88.47
2022-08-24T02:02:52.863Z,88.47
2022-08-24T02:03:52.724Z,88.67
2022-08-24T02:04:52.720Z,88.77
2022-08-24T02:05:52.733Z,88.97
2022-08-24T02:06:52.691Z,89.07
2022-08-24T02:07:52.701Z,89.27
2022-08-24T02:08:52.675Z,89.67
2022-08-24T02:09:52.677Z,89.58
2022-08-24T02:10:54.990Z,89.78
2022-08-24T02:11:52.652Z,89.87
2022-08-24T02:12:52.645Z,89.47
2022-08-24T02:13:52.624Z,89.67
2022-08-24T02:14:52.613Z,90.48
2022-08-24T02:15:52.650Z,90.17
2022-08-24T02:16:52.591Z,90.48
2022-08-24T02:17:52.608Z,90.08
2022-08-24T02:18:52.563Z,90.37
2022-08-24T02:19:52.565Z,90.68
2022-08-24T02:20:52.543Z,90.48
2022-08-24T02:21:52.533Z,90.48
2022-08-24T02:22:52.558Z,90.68
2022-08-24T02:23:52.516Z,90.08
2022-08-24T02:24:52.506Z,90.28
2022-08-24T02:25:52.493Z,90.37
2022-08-24T02:26:52.495Z,89.98
2022-08-24T02:27:52.482Z,90.17
2022-08-24T02:28:52.463Z,90.08
2022-08-24T02:29:52.447Z,90.08
2022-08-24T02:30:52.460Z,90.17
2022-08-24T02:31:52.444Z,90.17
2022-08-24T02:32:52.451Z,90.17
2022-08-24T02:33:52.425Z,90.08
2022-08-24T02:34:54.846Z,89.87
2022-08-24T02:35:52.386Z,90.28
2022-08-24T02:36:52.383Z,90.08
2022-08-24T02:37:52.388Z,90.17
2022-08-24T02:38:52.382Z,90.08
2022-08-24T02:39:52.412Z,90.17
2022-08-24T02:40:52.350Z,90.28
2022-08-24T02:41:52.327Z,90.37
2022-08-24T02:42:52.328Z,90.28
2022-08-24T02:43:52.310Z,90.28
2022-08-24T02:44:52.309Z,90.58
2022-08-24T02:45:52.293Z,90.37
2022-08-24T02:46:52.274Z,90.58
2022-08-24T02:47:52.281Z,90.68
2022-08-24T02:49:01.828Z,90.37
2022-08-24T02:49:52.244Z,90.28
2022-08-24T02:50:52.245Z,90.58
2022-08-24T02:51:52.216Z,90.48
2022-08-24T02:52:52.226Z,90.48
2022-08-24T02:53:52.198Z,90.48
2022-08-24T02:54:52.198Z,90.28
2022-08-24T02:55:52.179Z,90.37
2022-08-24T02:56:52.167Z,90.48
2022-08-24T02:57:52.174Z,89.98
2022-08-24T02:58:52.155Z,90.17
2022-08-24T02:59:52.135Z,89.98
2022-08-24T03:00:52.125Z,90.37
2022-08-24T03:01:52.183Z,90.08
2022-08-24T03:02:52.188Z,90.17
2022-08-24T03:03:52.096Z,90.28
2022-08-24T03:04:52.085Z,89.98
2022-08-24T03:05:52.077Z,90.17
2022-08-24T03:06:52.065Z,90.08
2022-08-24T03:07:52.288Z,90.08
2022-08-24T03:08:56.500Z,89.98
2022-08-24T03:09:52.040Z,89.98
2022-08-24T03:10:52.024Z,89.98
2022-08-24T03:11:52.014Z,89.78
2022-08-24T03:12:52.026Z,89.78
2022-08-24T03:13:51.993Z,89.87
2022-08-24T03:14:51.988Z,89.78
2022-08-24T03:15:52.029Z,89.98
2022-08-24T03:16:51.961Z,89.98
2022-08-24T03:17:51.962Z,89.87
2022-08-24T03:18:51.961Z,90.08
2022-08-24T03:19:51.925Z,89.98
2022-08-24T03:20:51.913Z,90.17
2022-08-24T03:21:57.954Z,89.98
2022-08-24T03:22:51.927Z,90.17
2022-08-24T03:23:54.555Z,89.98
2022-08-24T03:24:51.881Z,90.08
2022-08-24T03:25:51.870Z,89.87
2022-08-24T03:26:51.856Z,89.87
2022-08-24T03:27:51.859Z,89.87
2022-08-24T03:28:51.939Z,89.87
2022-08-24T03:29:51.824Z,89.58
2022-08-24T03:30:51.956Z,89.87
2022-08-24T03:31:51.796Z,89.78
2022-08-24T03:32:51.823Z,89.98
2022-08-24T03:33:51.784Z,90.17
2022-08-24T03:34:51.733Z,90.08
2022-08-24T03:35:51.762Z,89.98
2022-08-24T03:36:51.751Z,90.17
2022-08-24T03:37:51.754Z,90.17
2022-08-24T03:38:51.730Z,90.32
2022-08-24T03:39:51.757Z,90.32
2022-08-24T03:40:51.707Z,90.22
2022-08-24T03:41:51.694Z,90.62
2022-08-24T03:42:51.722Z,90.52
2022-08-24T03:43:51.627Z,90.62
2022-08-24T03:44:51.609Z,90.62
2022-08-24T03:45:51.680Z,90.62
2022-08-24T03:46:51.588Z,90.72
2022-08-24T03:47:51.589Z,90.72
2022-08-24T03:48:51.575Z,90.82
2022-08-24T03:49:51.564Z,90.72
2022-08-24T03:50:51.556Z,90.82
2022-08-24T03:51:51.558Z,90.72
2022-08-24T03:52:51.546Z,90.92
2022-08-24T03:53:51.515Z,90.72
2022-08-24T03:54:51.507Z,90.72
2022-08-24T03:55:51.491Z,90.62
2022-08-24T03:56:51.489Z,90.52
2022-08-24T03:57:51.483Z,90.72
2022-08-24T03:58:51.480Z,90.52
2022-08-24T03:59:51.447Z,90.62
2022-08-24T04:00:51.479Z,90.52
2022-08-24T04:01:51.444Z,90.72
2022-08-24T04:02:51.482Z,90.82
2022-08-24T04:03:51.411Z,90.72
2022-08-24T04:04:51.408Z,90.62
2022-08-24T04:05:51.385Z,90.82
2022-08-24T04:06:51.377Z,90.82
2022-08-24T04:07:51.384Z,90.82
2022-08-24T04:08:51.397Z,90.52
2022-08-24T04:09:51.351Z,90.72
2022-08-24T04:10:51.341Z,90.72
2022-08-24T04:11:51.829Z,90.62
2022-08-24T04:12:51.349Z,90.62
2022-08-24T04:13:51.302Z,90.62
2022-08-24T04:14:51.296Z,90.82
2022-08-24T04:15:51.306Z,90.72
2022-08-24T04:16:51.694Z,90.82
2022-08-24T04:17:51.265Z,90.72
2022-08-24T04:18:51.268Z,90.82
2022-08-24T04:19:51.249Z,90.82
2022-08-24T04:20:51.267Z,90.72
2022-08-24T04:21:51.252Z,90.52
2022-08-24T04:22:51.227Z,90.22
2022-08-24T04:23:51.205Z,90.22
2022-08-24T04:24:51.200Z,90.02
2022-08-24T04:25:51.178Z,89.92
2022-08-24T04:26:51.175Z,89.82
2022-08-24T04:27:51.172Z,89.82
2022-08-24T04:28:51.152Z,89.82
2022-08-24T04:29:51.131Z,89.62
2022-08-24T04:30:51.134Z,89.42
2022-08-24T04:31:51.163Z,89.51
2022-08-24T04:32:51.125Z,89.42
2022-08-24T04:33:53.836Z,89.42
2022-08-24T04:34:51.095Z,89.31
2022-08-24T04:35:51.077Z,89.31
2022-08-24T04:36:51.076Z,89.11
2022-08-24T04:37:51.070Z,89.31
2022-08-24T04:38:51.060Z,89.51
2022-08-24T04:39:51.097Z,89.22
2022-08-24T04:40:51.029Z,89.22
2022-08-24T04:41:51.009Z,89.42
2022-08-24T04:42:51.019Z,89.42
2022-08-24T04:43:51.028Z,89.31
2022-08-24T04:44:51.012Z,89.31
2022-08-24T04:45:51.023Z,89.22
2022-08-24T04:46:51.156Z,89.27
2022-08-24T04:47:51.182Z,89.17
2022-08-24T04:48:50.971Z,89.07
2022-08-24T04:49:50.943Z,89.17
2022-08-24T04:50:50.924Z,89.07
2022-08-24T04:51:50.929Z,88.97
2022-08-24T04:52:50.911Z,89.07
2022-08-24T04:53:50.890Z,89.07
2022-08-24T04:54:50.886Z,89.17
2022-08-24T04:55:50.870Z,89.37
2022-08-24T04:56:50.854Z,89.27
2022-08-24T04:57:50.859Z,88.97
2022-08-24T04:58:50.886Z,89.07
2022-08-24T04:59:50.861Z,89.17
2022-08-24T05:00:50.939Z,88.97
2022-08-24T05:01:50.912Z,89.17
2022-08-24T05:02:50.924Z,88.97
2022-08-24T05:03:50.807Z,88.87
2022-08-24T05:04:50.801Z,89.03
2022-08-24T05:05:50.789Z,88.83
2022-08-24T05:06:52.985Z,88.83
2022-08-24T05:07:54.685Z,88.63
2022-08-24T05:08:50.863Z,88.63
2022-08-24T05:09:52.379Z,88.93
2022-08-24T05:10:50.762Z,88.93
2022-08-24T05:11:50.773Z,88.73
2022-08-24T05:12:50.765Z,88.93
2022-08-24T05:13:50.678Z,88.83
2022-08-24T05:14:50.709Z,88.83
2022-08-24T05:15:50.790Z,88.83
2022-08-24T05:16:53.118Z,88.68
2022-08-24T05:17:51.343Z,88.89
2022-08-24T05:18:50.728Z,88.68
2022-08-24T05:19:50.630Z,88.89
2022-08-24T05:20:50.655Z,88.79
2022-08-24T05:21:50.656Z,88.99
2022-08-24T05:22:55.409Z,88.68
2022-08-24T05:23:50.616Z,88.59
2022-08-24T05:24:50.631Z,88.39
2022-08-24T05:25:50.576Z,88.39
2022-08-24T05:26:50.607Z,88.09
2022-08-24T05:27:50.547Z,88.18
2022-08-24T05:28:50.570Z,88.39
2022-08-24T05:29:50.568Z,88.09
2022-08-24T05:30:51.151Z,88.29
2022-08-24T05:31:50.593Z,88.18
2022-08-24T05:32:50.534Z,88.29
2022-08-24T05:33:50.502Z,87.98
2022-08-24T05:34:50.464Z,87.88
2022-08-24T05:35:50.598Z,87.88
2022-08-24T05:36:50.467Z,87.68
2022-08-24T05:37:50.490Z,87.78
2022-08-24T05:38:50.497Z,87.78
2022-08-24T05:39:50.480Z,87.58
2022-08-24T05:40:50.564Z,87.68
2022-08-24T05:41:50.435Z,87.28
2022-08-24T05:42:50.444Z,87.58
2022-08-24T05:43:50.373Z,87.34
2022-08-24T05:44:50.433Z,87.54
2022-08-24T05:45:50.342Z,87.34
2022-08-24T05:46:50.412Z,87.44
2022-08-24T05:47:50.410Z,87.44
2022-08-24T05:48:53.194Z,87.24
2022-08-24T05:49:50.323Z,87.24
2022-08-24T05:50:50.329Z,87.14
2022-08-24T05:51:50.283Z,87.04
2022-08-24T05:52:50.325Z,87.04
2022-08-24T05:53:50.320Z,86.54
2022-08-24T05:54:50.296Z,86.84
2022-08-24T05:55:50.303Z,86.94
2022-08-24T05:56:50.256Z,86.64
2022-08-24T05:57:50.248Z,86.60
2022-08-24T05:58:50.231Z,86.40
2022-08-24T05:59:50.211Z,85.69
2022-08-24T06:00:50.223Z,85.30
2022-08-24T06:01:50.278Z,85.30
2022-08-24T06:02:50.435Z,85.15
2022-08-24T06:03:50.155Z,85.19
2022-08-24T06:04:50.195Z,84.95
2022-08-24T06:05:50.167Z,84.85
2022-08-24T06:06:50.187Z,84.75
2022-08-24T06:07:50.166Z,84.65
2022-08-24T06:08:50.212Z,84.35
2022-08-24T06:09:50.148Z,84.35
2022-08-24T06:10:50.104Z,84.35
2022-08-24T06:11:50.088Z,84.45
2022-08-24T06:12:50.109Z,84.65
2022-08-24T06:13:53.717Z,84.85
2022-08-24T06:14:50.087Z,84.85
2022-08-24T06:16:10.949Z,84.75
2022-08-24T06:16:50.237Z,84.95
2022-08-24T06:17:50.102Z,85.15
2022-08-24T06:18:50.053Z,85.15
2022-08-24T06:19:50.020Z,85.05
2022-08-24T06:20:49.988Z,85.25
2022-08-24T06:21:49.976Z,85.05
2022-08-24T06:22:49.973Z,84.85
2022-08-24T06:23:50.105Z,84.85
2022-08-24T06:24:49.947Z,85.15
2022-08-24T06:25:49.980Z,85.25
2022-08-24T06:26:50.498Z,85.35
2022-08-24T06:27:49.964Z,85.15
2022-08-24T06:28:49.913Z,85.60
2022-08-24T06:29:50.038Z,85.60
2022-08-24T06:30:49.923Z,85.60
2022-08-24T06:31:54.240Z,85.80
2022-08-24T06:32:50.182Z,85.99
2022-08-24T06:33:49.892Z,85.99
2022-08-24T06:34:49.849Z,86.10
2022-08-24T06:35:49.851Z,85.69
2022-08-24T06:36:49.841Z,85.80
2022-08-24T06:37:49.819Z,86.10
2022-08-24T06:38:49.776Z,85.99
2022-08-24T06:39:55.069Z,86.10
2022-08-24T06:40:49.771Z,85.35
2022-08-24T06:41:49.753Z,85.15
2022-08-24T06:42:49.749Z,85.46
2022-08-24T06:43:49.741Z,85.46
2022-08-24T06:44:49.716Z,85.05
2022-08-24T06:45:49.712Z,84.85
2022-08-24T06:46:49.711Z,85.25
2022-08-24T06:47:49.710Z,85.35
2022-08-24T06:48:49.675Z,85.55
2022-08-24T06:49:49.670Z,85.46
2022-08-24T06:50:49.652Z,85.66
2022-08-24T06:51:50.888Z,85.85
2022-08-24T06:52:49.652Z,86.05
2022-08-24T06:53:49.631Z,86.05
2022-08-24T06:54:49.612Z,85.96
2022-08-24T06:55:49.609Z,85.66
2022-08-24T06:56:49.591Z,85.66
2022-08-24T06:57:52.463Z,85.66
2022-08-24T06:58:49.568Z,85.31
2022-08-24T06:59:49.569Z,85.11
2022-08-24T07:00:49.548Z,85.01
2022-08-24T07:01:49.620Z,84.61
2022-08-24T07:02:49.584Z,85.31
2022-08-24T07:03:49.532Z,85.11
2022-08-24T07:04:49.507Z,85.11
2022-08-24T07:05:49.498Z,85.11
2022-08-24T07:06:49.485Z,84.81
2022-08-24T07:07:49.494Z,84.61
2022-08-24T07:08:49.461Z,84.51
2022-08-24T07:09:49.456Z,84.37
2022-08-24T07:10:49.445Z,84.07
2022-08-24T07:11:49.442Z,84.27
2022-08-24T07:12:49.429Z,84.17
2022-08-24T07:13:49.414Z,83.97
2022-08-24T07:14:49.413Z,83.97
2022-08-24T07:15:49.558Z,83.57
2022-08-24T07:16:49.382Z,83.67
2022-08-24T07:17:49.390Z,83.77
2022-08-24T07:18:50.598Z,83.73
2022-08-24T07:19:49.367Z,83.43
2022-08-24T07:20:49.337Z,82.93
2022-08-24T07:21:49.369Z,83.03
2022-08-24T07:22:49.331Z,82.83
2022-08-24T07:23:49.313Z,82.73
2022-08-24T07:24:49.300Z,82.23
2022-08-24T07:25:54.162Z,82.33
2022-08-24T07:26:49.281Z,82.43
2022-08-24T07:27:49.292Z,82.33
2022-08-24T07:28:49.283Z,82.19
2022-08-24T07:30:00.098Z,82.49
2022-08-24T07:30:49.309Z,82.19
2022-08-24T07:31:49.235Z,82.19
2022-08-24T07:32:49.225Z,82.29
2022-08-24T07:33:49.213Z,81.89
2022-08-24T07:34:49.217Z,82.19
2022-08-24T07:35:49.196Z,81.79
2022-08-24T07:36:49.171Z,81.79
2022-08-24T07:37:49.199Z,81.69
2022-08-24T07:38:49.150Z,81.79
2022-08-24T07:39:49.305Z,81.56
2022-08-24T07:41:14.357Z,80.85
2022-08-24T07:42:11.569Z,80.76
2022-08-24T07:42:49.129Z,80.35
2022-08-24T07:43:49.102Z,80.85
2022-08-24T07:44:49.089Z,79.04
2022-08-24T07:45:49.084Z,75.50
2022-08-24T07:46:49.165Z,72.34
2022-08-24T07:47:55.113Z,69.16
2022-08-24T07:48:56.135Z,66.78
2022-08-24T07:49:49.048Z,65.23
2022-08-24T07:50:49.042Z,64.11
2022-08-24T07:51:49.047Z,63.06
2022-08-24T07:52:49.023Z,62.12
2022-08-24T07:53:53.874Z,61.29
2022-08-24T07:54:48.990Z,60.28
2022-08-24T07:55:48.978Z,60.80
2022-08-24T07:56:48.965Z,61.55
2022-08-24T07:57:48.990Z,62.44
2022-08-24T07:58:48.939Z,62.04
2022-08-24T07:59:48.942Z,61.85
2022-08-24T08:00:48.921Z,62.27
2022-08-24T08:01:48.989Z,64.21
2022-08-24T08:02:48.999Z,64.31
2022-08-24T08:03:50.053Z,65.46
2022-08-24T08:04:48.881Z,66.91
2022-08-24T08:05:48.875Z,68.37
2022-08-24T08:06:48.889Z,68.57
2022-08-24T08:07:51.680Z,68.13
2022-08-24T08:08:48.837Z,67.94
2022-08-24T08:09:48.907Z,69.20
2022-08-24T08:10:48.833Z,68.63
2022-08-24T08:11:48.826Z,65.92
2022-08-24T08:12:48.795Z,64.08
2022-08-24T08:13:48.792Z,62.93
2022-08-24T08:14:48.778Z,63.46
2022-08-24T08:15:48.820Z,64.11
2022-08-24T08:16:48.786Z,65.43
2022-08-24T08:17:55.812Z,66.88
2022-08-24T08:18:52.344Z,67.84
2022-08-24T08:19:48.739Z,68.66
2022-08-24T08:20:48.717Z,69.26
2022-08-24T08:21:48.725Z,69.89
2022-08-24T08:22:48.691Z,70.62
2022-08-24T08:23:48.693Z,71.25
2022-08-24T08:24:48.669Z,71.45
2022-08-24T08:25:48.668Z,71.88
2022-08-24T08:26:48.669Z,72.28
2022-08-24T08:27:48.658Z,72.47
2022-08-24T08:28:48.632Z,72.58
2022-08-24T08:29:48.627Z,72.67
2022-08-24T08:30:48.643Z,72.91
2022-08-24T08:31:48.620Z,73.11
2022-08-24T08:32:48.592Z,73.30
2022-08-24T08:33:48.619Z,73.41
2022-08-24T08:34:48.567Z,73.64
2022-08-24T08:35:48.559Z,74.13
2022-08-24T08:36:48.568Z,74.33
2022-08-24T08:37:48.542Z,74.77
2022-08-24T08:38:48.530Z,74.97
2022-08-24T08:39:48.553Z,75.16
2022-08-24T08:40:48.499Z,75.40
2022-08-24T08:41:48.499Z,75.50
2022-08-24T08:42:48.509Z,75.50
2022-08-24T08:43:48.476Z,75.70
2022-08-24T08:44:48.463Z,75.80
2022-08-24T08:45:48.484Z,75.70
2022-08-24T08:46:48.459Z,75.37
2022-08-24T08:47:48.530Z,75.07
2022-08-24T08:48:48.443Z,75.07
2022-08-24T08:49:48.444Z,74.57
2022-08-24T08:50:48.403Z,75.40
2022-08-24T08:51:48.395Z,75.94
2022-08-24T08:52:48.396Z,76.24
2022-08-24T08:53:48.376Z,76.34
2022-08-24T08:54:48.842Z,76.43
2022-08-24T08:55:48.349Z,76.43
2022-08-24T08:56:48.335Z,76.64
2022-08-24T08:57:48.343Z,76.73
2022-08-24T08:58:51.111Z,76.93
2022-08-24T08:59:48.312Z,77.03
2022-08-24T09:00:48.300Z,77.17
2022-08-24T09:01:48.321Z,77.17
2022-08-24T09:02:48.300Z,77.17
2022-08-24T09:03:48.279Z,77.07
2022-08-24T09:04:48.285Z,77.07
2022-08-24T09:05:48.258Z,76.93
2022-08-24T09:06:48.237Z,77.03
2022-08-24T09:07:48.249Z,77.17
2022-08-24T09:08:48.210Z,77.37
2022-08-24T09:09:48.232Z,77.47
2022-08-24T09:10:48.191Z,77.67
2022-08-24T09:11:48.185Z,77.47
2022-08-24T09:12:48.190Z,77.57
2022-08-24T09:13:48.167Z,77.57
2022-08-24T09:14:48.145Z,77.77
2022-08-24T09:15:48.141Z,77.97
2022-08-24T09:16:48.220Z,77.77
2022-08-24T09:17:48.135Z,77.97
2022-08-24T09:18:48.108Z,78.00
2022-08-24T09:19:48.108Z,78.20
2022-08-24T09:20:48.087Z,78.41
2022-08-24T09:21:48.094Z,78.60
2022-08-24T09:22:54.111Z,78.70
2022-08-24T09:23:48.715Z,78.70
2022-08-24T09:24:48.678Z,79.00
2022-08-24T09:25:48.748Z,79.00
2022-08-24T09:26:48.046Z,78.90
2022-08-24T09:27:51.448Z,79.00
2022-08-24T09:28:47.999Z,78.80
2022-08-24T09:29:47.995Z,79.10
2022-08-24T09:30:48.032Z,78.90
2022-08-24T09:31:47.995Z,78.90
2022-08-24T09:32:49.492Z,78.70
2022-08-24T09:33:47.972Z,78.70
2022-08-24T09:34:47.940Z,78.70
2022-08-24T09:35:47.936Z,78.80
2022-08-24T09:36:47.964Z,79.00
2022-08-24T09:37:47.914Z,79.00
2022-08-24T09:38:47.903Z,79.24
2022-08-24T09:39:47.999Z,79.44
2022-08-24T09:40:47.891Z,79.30
2022-08-24T09:41:47.882Z,79.30
2022-08-24T09:42:47.865Z,79.70
2022-08-24T09:43:47.844Z,79.70
2022-08-24T09:44:47.840Z,79.60
2022-08-24T09:45:47.854Z,79.30
2022-08-24T09:46:47.826Z,79.40
2022-08-24T09:47:47.807Z,79.20
2022-08-24T09:48:47.792Z,78.90
2022-08-24T09:49:47.790Z,79.00
2022-08-24T09:50:47.808Z,78.80
2022-08-24T09:51:47.775Z,78.80
2022-08-24T09:52:47.751Z,79.00
2022-08-24T09:53:47.742Z,79.00
2022-08-24T09:54:47.733Z,79.10
2022-08-24T09:55:47.729Z,78.80
2022-08-24T09:56:47.705Z,78.80
2022-08-24T09:58:00.458Z,78.67
2022-08-24T09:58:47.690Z,78.56
2022-08-24T09:59:47.697Z,78.56
2022-08-24T10:00:47.758Z,78.37
2022-08-24T10:01:47.661Z,78.56
2022-08-24T10:02:47.645Z,78.47
2022-08-24T10:03:47.637Z,78.97
2022-08-24T10:04:47.737Z,78.77
2022-08-24T10:05:47.785Z,78.86
2022-08-24T10:06:47.598Z,78.97
2022-08-24T10:07:47.597Z,78.77
2022-08-24T10:08:47.588Z,78.37
2022-08-24T10:09:47.572Z,78.97
2022-08-24T10:10:47.588Z,78.67
2022-08-24T10:11:47.557Z,78.27
2022-08-24T10:12:47.533Z,78.17
2022-08-24T10:13:47.533Z,78.07
2022-08-24T10:14:47.514Z,77.87
2022-08-24T10:15:47.527Z,77.63
2022-08-24T10:16:47.551Z,77.53
2022-08-24T10:17:47.499Z,77.33
2022-08-24T10:18:47.471Z,77.23
2022-08-24T10:19:47.477Z,77.29
2022-08-24T10:20:47.482Z,76.90
2022-08-24T10:21:47.501Z,76.79
2022-08-24T10:22:47.454Z,77.00
2022-08-24T10:23:47.440Z,76.90
2022-08-24T10:24:47.407Z,76.60
2022-08-24T10:25:47.415Z,76.79
2022-08-24T10:26:47.394Z,76.79
2022-08-24T10:27:47.385Z,76.70
2022-08-24T10:28:47.374Z,76.60
2022-08-24T10:29:47.365Z,76.60
2022-08-24T10:30:47.355Z,76.60
2022-08-24T10:31:47.350Z,76.60
2022-08-24T10:32:47.330Z,76.60
2022-08-24T10:33:47.321Z,76.17
2022-08-24T10:34:47.330Z,75.76
2022-08-24T10:35:47.306Z,75.23
2022-08-24T10:36:47.286Z,74.93
2022-08-24T10:37:47.275Z,74.93
2022-08-24T10:38:47.260Z,75.27
2022-08-24T10:39:47.306Z,75.46
2022-08-24T10:40:47.253Z,75.57
2022-08-24T10:41:47.232Z,75.57
2022-08-24T10:42:47.227Z,75.16
2022-08-24T10:43:47.218Z,75.27
2022-08-24T10:44:47.213Z,75.13
2022-08-24T10:45:48.192Z,74.93
2022-08-24T10:46:47.180Z,75.13
2022-08-24T10:47:47.177Z,74.93
2022-08-24T10:48:47.151Z,74.69
2022-08-24T10:49:47.176Z,74.63
2022-08-24T10:50:47.153Z,74.84
2022-08-24T10:51:47.119Z,74.93
2022-08-24T10:52:47.129Z,74.50
2022-08-24T10:53:47.126Z,74.40
2022-08-24T10:54:47.107Z,74.20
2022-08-24T10:55:47.088Z,74.00
2022-08-24T10:56:47.077Z,74.33
2022-08-24T10:57:47.063Z,74.43
2022-08-24T10:58:47.062Z,74.63
2022-08-24T10:59:47.065Z,74.84
2022-08-24T11:00:47.093Z,74.84
2022-08-24T11:01:47.097Z,74.63
2022-08-24T11:02:47.021Z,74.10
2022-08-24T11:03:47.001Z,72.51
2022-08-24T11:04:47.032Z,73.00
2022-08-24T11:05:47.025Z,73.11
2022-08-24T11:06:46.974Z,72.51
2022-08-24T11:07:46.957Z,72.91
2022-08-24T11:08:46.955Z,73.30
2022-08-24T11:09:46.963Z,74.10
2022-08-24T11:10:46.928Z,73.60
2022-08-24T11:11:46.925Z,73.74
2022-08-24T11:12:46.910Z,73.84
2022-08-24T11:13:46.896Z,74.04
2022-08-24T11:14:46.908Z,74.33
2022-08-24T11:15:46.871Z,74.63
2022-08-24T11:16:46.942Z,74.54
2022-08-24T11:17:46.851Z,74.63
2022-08-24T11:18:46.857Z,75.07
2022-08-24T11:19:46.852Z,75.27
2022-08-24T11:20:46.837Z,75.07
2022-08-24T11:21:46.813Z,74.87
2022-08-24T11:22:46.804Z,74.87
2022-08-24T11:23:46.790Z,75.07
2022-08-24T11:24:46.809Z,75.87
2022-08-24T11:25:46.769Z,75.67
2022-08-24T11:26:46.783Z,74.77
2022-08-24T11:27:46.754Z,74.54
2022-08-24T11:28:46.747Z,74.93
2022-08-24T11:29:46.808Z,74.27
2022-08-24T11:30:46.718Z,74.37
2022-08-24T11:31:46.777Z,74.47
2022-08-24T11:32:46.720Z,74.27
2022-08-24T11:33:46.701Z,74.27
2022-08-24T11:34:46.693Z,74.04
2022-08-24T11:35:46.672Z,73.74
2022-08-24T11:36:46.661Z,73.64
2022-08-24T11:37:46.658Z,73.84
2022-08-24T11:38:46.643Z,74.04
2022-08-24T11:39:46.666Z,73.84
2022-08-24T11:40:46.619Z,73.41
2022-08-24T11:41:46.598Z,73.30
2022-08-24T11:42:46.594Z,73.30
2022-08-24T11:43:46.580Z,72.71
2022-08-24T11:44:46.596Z,72.77
2022-08-24T11:45:46.561Z,72.47
2022-08-24T11:46:46.589Z,72.28
2022-08-24T11:47:46.533Z,71.75
2022-08-24T11:48:46.536Z,71.45
2022-08-24T11:49:46.530Z,71.25
2022-08-24T11:50:46.507Z,71.55
2022-08-24T11:51:46.493Z,71.05
2022-08-24T11:52:46.494Z,70.95
2022-08-24T11:53:46.505Z,71.25
2022-08-24T11:54:46.477Z,71.88
2022-08-24T11:55:51.479Z,72.08
2022-08-24T11:56:46.459Z,71.88
2022-08-24T11:57:48.204Z,72.08
2022-08-24T11:58:46.438Z,72.17
2022-08-24T11:59:46.414Z,72.17
2022-08-24T12:00:46.406Z,72.17
2022-08-24T12:01:46.495Z,72.38
2022-08-24T12:02:46.470Z,72.38
2022-08-24T12:03:50.604Z,72.61
2022-08-24T12:04:46.369Z,72.61
2022-08-24T12:05:46.352Z,72.81
2022-08-24T12:06:46.366Z,72.08
2022-08-24T12:08:00.674Z,71.88
2022-08-24T12:08:46.338Z,71.68
2022-08-24T12:09:46.310Z,71.38
2022-08-24T12:10:46.298Z,71.15
2022-08-24T12:11:46.287Z,71.15
2022-08-24T12:12:46.284Z,71.15
2022-08-24T12:13:46.271Z,71.05
2022-08-24T12:14:46.259Z,69.76
2022-08-24T12:15:51.371Z,69.66
2022-08-24T12:16:46.388Z,69.76
2022-08-24T12:17:46.227Z,70.15
2022-08-24T12:18:46.241Z,70.06
2022-08-24T12:19:46.212Z,69.56
2022-08-24T12:20:48.001Z,69.76
2022-08-24T12:21:46.180Z,70.06
2022-08-24T12:22:46.175Z,69.92
2022-08-24T12:23:46.168Z,69.92
2022-08-24T12:24:46.151Z,69.72
2022-08-24T12:25:46.141Z,69.32
2022-08-24T12:26:46.163Z,69.72
2022-08-24T12:27:46.116Z,69.49
2022-08-24T12:28:46.127Z,69.49
2022-08-24T12:29:46.101Z,69.29
2022-08-24T12:30:46.089Z,69.20
2022-08-24T12:31:46.182Z,68.80
2022-08-24T12:32:46.068Z,68.76
2022-08-24T12:33:46.068Z,68.46
2022-08-24T12:34:46.045Z,67.94
2022-08-24T12:35:46.051Z,67.41
2022-08-24T12:36:46.026Z,67.14
2022-08-24T12:37:46.012Z,66.82
2022-08-24T12:38:46.014Z,67.24
2022-08-24T12:39:46.023Z,67.57
2022-08-24T12:40:45.982Z,68.07
2022-08-24T12:41:45.978Z,68.07
2022-08-24T12:42:49.966Z,68.17
2022-08-24T12:43:45.971Z,68.50
2022-08-24T12:44:45.942Z,68.80
2022-08-24T12:45:45.923Z,68.99
2022-08-24T12:46:45.973Z,69.09
2022-08-24T12:47:45.920Z,69.43
2022-08-24T12:48:45.912Z,69.62
2022-08-24T12:49:45.883Z,69.62
2022-08-24T12:50:45.892Z,69.62
2022-08-24T12:51:45.865Z,69.76
2022-08-24T12:52:45.869Z,69.06